sensor_id;sensor_type;location;lat;lon;timestamp;P1;P2;P0
74428;PMS5003;62860;52.134;23.714;2022-12-20T00:05:04;8.2;6.2;5.2
74428;PMS5003;62860;52.134;23.714;2022-12-20T00:10:00;10;6.4;5.6
74428;PMS5003;62860;52.134;23.714;2022-12-20T00:14:36;9.8;7.2;5.2
74428;PMS5003;62860;52.134;23.714;2022-12-20T00:19:48;6.6;5.2;3.6
74428;PMS5003;62860;52.134;23.714;2022-12-20T00:24:56;13.2;10;7.2
74428;PMS5003;62860;52.134;23.714;2022-12-20T00:29:44;12.6;8;6
74428;PMS5003;62860;52.134;23.714;2022-12-20T00:34:44;7.4;5.8;4
74428;PMS5003;62860;52.134;23.714;2022-12-20T00:39:32;7;5;4
74428;PMS5003;62860;52.134;23.714;2022-12-20T00:44:56;8.6;6;5.2
74428;PMS5003;62860;52.134;23.714;2022-12-20T00:50:02;7.3;6;5.3
74428;PMS5003;62860;52.134;23.714;2022-12-20T00:54:32;7.2;5.8;4
74428;PMS5003;62860;52.134;23.714;2022-12-20T00:59:54;9;6;4.6
74428;PMS5003;62860;52.134;23.714;2022-12-20T01:04:54;8.4;5.6;4.4
74428;PMS5003;62860;52.134;23.714;2022-12-20T01:09:32;8;6;4.2
74428;PMS5003;62860;52.134;23.714;2022-12-20T01:15:04;7.6;5.2;4.2
74428;PMS5003;62860;52.134;23.714;2022-12-20T01:19:44;7.2;5.2;3.8
74428;PMS5003;62860;52.134;23.714;2022-12-20T01:24:44;7;4.6;4.2
74428;PMS5003;62860;52.134;23.714;2022-12-20T01:29:26;9.4;6.8;4.8
74428;PMS5003;62860;52.134;23.714;2022-12-20T01:34:48;7.6;6.8;5
74428;PMS5003;62860;52.134;23.714;2022-12-20T01:40:08;8.2;6.2;4.2
74428;PMS5003;62860;52.134;23.714;2022-12-20T01:45:00;9.6;5.2;3.8
74428;PMS5003;62860;52.134;23.714;2022-12-20T01:49:56;6.6;5;3.8
74428;PMS5003;62860;52.134;23.714;2022-12-20T01:55:00;7.8;5.8;4.6
74428;PMS5003;62860;52.134;23.714;2022-12-20T01:59:36;7.4;6.2;4.4
74428;PMS5003;62860;52.134;23.714;2022-12-20T02:05:08;7;4.8;3.8
74428;PMS5003;62860;52.134;23.714;2022-12-20T02:09:26;8.4;7.2;5.4
74428;PMS5003;62860;52.134;23.714;2022-12-20T02:14:30;9;6.2;4.8
74428;PMS5003;62860;52.134;23.714;2022-12-20T02:19:44;7.2;6;5.6
74428;PMS5003;62860;52.134;23.714;2022-12-20T02:25:08;7.8;5.4;4.6
74428;PMS5003;62860;52.134;23.714;2022-12-20T02:30:09;8;5.6;4.8
74428;PMS5003;62860;52.134;23.714;2022-12-20T02:34:26;7;4.8;3.6
74428;PMS5003;62860;52.134;23.714;2022-12-20T02:39:50;6.8;5.2;4.6
74428;PMS5003;62860;52.134;23.714;2022-12-20T02:45:00;9;5;3.8
74428;PMS5003;62860;52.134;23.714;2022-12-20T02:49:26;6.4;5;4
74428;PMS5003;62860;52.134;23.714;2022-12-20T02:55:08;5.8;4.2;3.4
74428;PMS5003;62860;52.134;23.714;2022-12-20T02:59:49;7.2;4.2;2.6
74428;PMS5003;62860;52.134;23.714;2022-12-20T03:05:08;8.6;5.8;4.4
74428;PMS5003;62860;52.134;23.714;2022-12-20T03:09:26;6;5;3.4
74428;PMS5003;62860;52.134;23.714;2022-12-20T03:14:38;5.4;4.4;2.8
74428;PMS5003;62860;52.134;23.714;2022-12-20T03:20:06;5.4;5.2;3
74428;PMS5003;62860;52.134;23.714;2022-12-20T03:24:26;7.4;5.2;3.4
74428;PMS5003;62860;52.134;23.714;2022-12-20T03:29:56;6.6;5.2;3.4
74428;PMS5003;62860;52.134;23.714;2022-12-20T03:34:48;6.6;4.2;3
74428;PMS5003;62860;52.134;23.714;2022-12-20T03:39:26;10;7.4;5.2
74428;PMS5003;62860;52.134;23.714;2022-12-20T03:45:08;7.8;6.4;5.4
74428;PMS5003;62860;52.134;23.714;2022-12-20T03:49:26;5.8;5.2;3.2
74428;PMS5003;62860;52.134;23.714;2022-12-20T03:54:36;5.6;4.6;3
74428;PMS5003;62860;52.134;23.714;2022-12-20T03:59:26;7.2;5.4;3.4
74428;PMS5003;62860;52.134;23.714;2022-12-20T04:04:58;6.8;4.8;4
74428;PMS5003;62860;52.134;23.714;2022-12-20T04:09:54;6.2;4;2.8
74428;PMS5003;62860;52.134;23.714;2022-12-20T04:14:34;6.8;4.8;3.2
74428;PMS5003;62860;52.134;23.714;2022-12-20T04:19:56;7;5;4.2
74428;PMS5003;62860;52.134;23.714;2022-12-20T04:24:48;5.8;4.4;3.2
74428;PMS5003;62860;52.134;23.714;2022-12-20T04:29:26;6.2;5.2;3
74428;PMS5003;62860;52.134;23.714;2022-12-20T04:35:06;5.8;4.4;3
74428;PMS5003;62860;52.134;23.714;2022-12-20T04:39:48;5.8;5.4;3.2
74428;PMS5003;62860;52.134;23.714;2022-12-20T04:44:48;6.2;4.6;3.4
74428;PMS5003;62860;52.134;23.714;2022-12-20T04:49:36;4.2;4.2;2.8
74428;PMS5003;62860;52.134;23.714;2022-12-20T04:55:06;7.8;6.6;5
74428;PMS5003;62860;52.134;23.714;2022-12-20T05:00:08;7;4.2;3.8
74428;PMS5003;62860;52.134;23.714;2022-12-20T05:04:38;6.6;4.8;3.4
74428;PMS5003;62860;52.134;23.714;2022-12-20T05:09:58;10;6.2;4.6
74428;PMS5003;62860;52.134;23.714;2022-12-20T05:14:58;11.6;7.2;5.4
74428;PMS5003;62860;52.134;23.714;2022-12-20T05:20:06;8.2;6.4;4.4
74428;PMS5003;62860;52.134;23.714;2022-12-20T05:25:06;10.4;6.6;5.2
74428;PMS5003;62860;52.134;23.714;2022-12-20T05:29:36;11.4;7.4;4.8
74428;PMS5003;62860;52.134;23.714;2022-12-20T05:34:26;9;7.2;5
74428;PMS5003;62860;52.134;23.714;2022-12-20T05:39:26;8;6.6;4.6
74428;PMS5003;62860;52.134;23.714;2022-12-20T05:45:06;10.6;7.8;7
74428;PMS5003;62860;52.134;23.714;2022-12-20T05:50:08;8.6;6.2;5.2
74428;PMS5003;62860;52.134;23.714;2022-12-20T05:54:34;9;6.4;3.8
74428;PMS5003;62860;52.134;23.714;2022-12-20T05:59:44;8.6;5.2;4
74428;PMS5003;62860;52.134;23.714;2022-12-20T06:05:00;8.5;7.3;5.3
74428;PMS5003;62860;52.134;23.714;2022-12-20T06:10:06;8.6;7.8;5.2
74428;PMS5003;62860;52.134;23.714;2022-12-20T06:15:06;6.2;5.4;3.2
74428;PMS5003;62860;52.134;23.714;2022-12-20T06:19:26;7;5.8;4.2
74428;PMS5003;62860;52.134;23.714;2022-12-20T06:24:36;7.2;6.4;4.8
74428;PMS5003;62860;52.134;23.714;2022-12-20T06:29:26;9.2;7.2;5
74428;PMS5003;62860;52.134;23.714;2022-12-20T06:35:06;9;7.2;5.2
74428;PMS5003;62860;52.134;23.714;2022-12-20T06:40:06;8.8;7;5.8
74428;PMS5003;62860;52.134;23.714;2022-12-20T06:44:38;8;5.8;5
74428;PMS5003;62860;52.134;23.714;2022-12-20T06:49:58;6.4;5.8;4.6
74428;PMS5003;62860;52.134;23.714;2022-12-20T06:54:48;7.8;6.6;5.4
74428;PMS5003;62860;52.134;23.714;2022-12-20T07:00:06;6;4.8;4
74428;PMS5003;62860;52.134;23.714;2022-12-20T07:05:08;9.2;8;5.2
74428;PMS5003;62860;52.134;23.714;2022-12-20T07:09:36;12.2;8;6
74428;PMS5003;62860;52.134;23.714;2022-12-20T07:14:26;9.2;7.2;5
74428;PMS5003;62860;52.134;23.714;2022-12-20T07:19:36;11.2;8.2;6.2
74428;PMS5003;62860;52.134;23.714;2022-12-20T07:25:08;8.4;6.6;5.2
74428;PMS5003;62860;52.134;23.714;2022-12-20T07:29:54;9.8;7.4;6
74428;PMS5003;62860;52.134;23.714;2022-12-20T07:34:26;8.6;7;4.8
74428;PMS5003;62860;52.134;23.714;2022-12-20T07:39:58;6.6;5.4;4
74428;PMS5003;62860;52.134;23.714;2022-12-20T07:45:00;7.4;6;4.8
74428;PMS5003;62860;52.134;23.714;2022-12-20T07:50:08;17;15.6;12.8
74428;PMS5003;62860;52.134;23.714;2022-12-20T07:55:06;24.8;20;15.2
74428;PMS5003;62860;52.134;23.714;2022-12-20T07:59:48;17.6;15.4;11.8
74428;PMS5003;62860;52.134;23.714;2022-12-20T08:04:36;16.4;11.2;9.2
74428;PMS5003;62860;52.134;23.714;2022-12-20T08:09:34;14.4;11.4;9.4
74428;PMS5003;62860;52.134;23.714;2022-12-20T08:15:08;11.4;9.2;8
74428;PMS5003;62860;52.134;23.714;2022-12-20T08:20:08;17;12.6;8.2
74428;PMS5003;62860;52.134;23.714;2022-12-20T08:24:38;11.4;9.8;7
74428;PMS5003;62860;52.134;23.714;2022-12-20T08:30:06;10.8;9.8;8
74428;PMS5003;62860;52.134;23.714;2022-12-20T08:34:56;12.4;8.8;7
74428;PMS5003;62860;52.134;23.714;2022-12-20T08:39:46;12;8.8;6.6
74428;PMS5003;62860;52.134;23.714;2022-12-20T08:44:34;11.6;7.8;5.4
74428;PMS5003;62860;52.134;23.714;2022-12-20T08:49:34;10.8;8.6;6
74428;PMS5003;62860;52.134;23.714;2022-12-20T08:55:06;9.2;7.6;5.6
74428;PMS5003;62860;52.134;23.714;2022-12-20T08:59:26;10.4;8.6;6.2
74428;PMS5003;62860;52.134;23.714;2022-12-20T09:04:44;11.2;8.2;6.4
74428;PMS5003;62860;52.134;23.714;2022-12-20T09:09:26;6.8;6.8;5.6
74428;PMS5003;62860;52.134;23.714;2022-12-20T09:14:36;7.6;5.4;4.4
74428;PMS5003;62860;52.134;23.714;2022-12-20T09:20:06;6.4;5.4;3.8
74428;PMS5003;62860;52.134;23.714;2022-12-20T09:24:54;11.2;7.6;6.4
74428;PMS5003;62860;52.134;23.714;2022-12-20T09:29:50;9.6;7.4;5.8
74428;PMS5003;62860;52.134;23.714;2022-12-20T09:34:36;11.8;9;7.2
74428;PMS5003;62860;52.134;23.714;2022-12-20T09:40:00;10.2;9.2;6.8
74428;PMS5003;62860;52.134;23.714;2022-12-20T09:45:07;13.4;10.6;8.2
74428;PMS5003;62860;52.134;23.714;2022-12-20T09:49:26;10.6;8.2;5.4
74428;PMS5003;62860;52.134;23.714;2022-12-20T09:54:28;10.2;7.6;6.2
74428;PMS5003;62860;52.134;23.714;2022-12-20T09:59:48;11.2;9.2;7.4
74428;PMS5003;62860;52.134;23.714;2022-12-20T10:04:27;10;7.8;5.6
74428;PMS5003;62860;52.134;23.714;2022-12-20T10:10:13;12.4;9.4;7.4
74428;PMS5003;62860;52.134;23.714;2022-12-20T10:15:00;11.8;9.8;7.8
74428;PMS5003;62860;52.134;23.714;2022-12-20T10:19:59;12;9.8;6.4
74428;PMS5003;62860;52.134;23.714;2022-12-20T10:24:26;14.2;10.2;6.6
74428;PMS5003;62860;52.134;23.714;2022-12-20T10:30:00;12.8;10.4;8.2
74428;PMS5003;62860;52.134;23.714;2022-12-20T10:35:15;14.2;9.4;6.8
74428;PMS5003;62860;52.134;23.714;2022-12-20T10:39:38;10.8;8.8;6.4
74428;PMS5003;62860;52.134;23.714;2022-12-20T10:44:44;11.4;9;7
74428;PMS5003;62860;52.134;23.714;2022-12-20T10:49:37;13.6;10.4;8.4
74428;PMS5003;62860;52.134;23.714;2022-12-20T10:54:37;10.8;9.6;8.2
74428;PMS5003;62860;52.134;23.714;2022-12-20T11:00:09;12.6;10;7.4
74428;PMS5003;62860;52.134;23.714;2022-12-20T11:04:57;12.4;10.6;8.6
74428;PMS5003;62860;52.134;23.714;2022-12-20T11:09:55;16;11.8;8
74428;PMS5003;62860;52.134;23.714;2022-12-20T11:14:26;13.4;12;7.8
74428;PMS5003;62860;52.134;23.714;2022-12-20T11:19:40;13;9.3;7.5
74428;PMS5003;62860;52.134;23.714;2022-12-20T11:25:11;11.6;11.6;8.6
74428;PMS5003;62860;52.134;23.714;2022-12-20T11:29:39;14.6;10.8;8.6
74428;PMS5003;62860;52.134;23.714;2022-12-20T11:34:29;14.4;11.6;8.2
74428;PMS5003;62860;52.134;23.714;2022-12-20T11:39:28;11.4;9.4;7.2
74428;PMS5003;62860;52.134;23.714;2022-12-20T11:44:28;14.4;10.2;7.8
74428;PMS5003;62860;52.134;23.714;2022-12-20T11:50:15;14.4;10.8;7.8
74428;PMS5003;62860;52.134;23.714;2022-12-20T11:54:55;12;8.4;6.4
74428;PMS5003;62860;52.134;23.714;2022-12-20T11:59:57;12.8;9.6;7
74428;PMS5003;62860;52.134;23.714;2022-12-20T12:04:37;12.8;10.8;7.8
74428;PMS5003;62860;52.134;23.714;2022-12-20T12:09:50;15.4;11.8;8.6
74428;PMS5003;62860;52.134;23.714;2022-12-20T12:15:03;12.8;11.6;7.6
74428;PMS5003;62860;52.134;23.714;2022-12-20T12:19:36;13.6;10.4;8
74428;PMS5003;62860;52.134;23.714;2022-12-20T12:24:47;10.4;8;6.4
74428;PMS5003;62860;52.134;23.714;2022-12-20T12:29:27;12.8;8.4;7
74428;PMS5003;62860;52.134;23.714;2022-12-20T12:34:29;12.4;9.8;7.2
74428;PMS5003;62860;52.134;23.714;2022-12-20T12:41:10;12.2;8.4;6.6
74428;PMS5003;62860;52.134;23.714;2022-12-20T12:44:45;12.6;9.4;7.4
74428;PMS5003;62860;52.134;23.714;2022-12-20T12:49:52;15.4;10.2;7.2
74428;PMS5003;62860;52.134;23.714;2022-12-20T12:54:27;12;9.2;7.8
74428;PMS5003;62860;52.134;23.714;2022-12-20T13:00:17;19;12;9
74428;PMS5003;62860;52.134;23.714;2022-12-20T13:05:36;12.4;11.2;8.6
74428;PMS5003;62860;52.134;23.714;2022-12-20T13:09:35;17.8;13.6;10.4
74428;PMS5003;62860;52.134;23.714;2022-12-20T13:14:46;16.2;9.8;7.4
74428;PMS5003;62860;52.134;23.714;2022-12-20T13:19:48;15.6;11.4;8
74428;PMS5003;62860;52.134;23.714;2022-12-20T13:25:03;13.8;10.2;7.6
74428;PMS5003;62860;52.134;23.714;2022-12-20T13:34:53;16.6;13.8;10.4
74428;PMS5003;62860;52.134;23.714;2022-12-20T13:39:54;16.4;13;10.2
74428;PMS5003;62860;52.134;23.714;2022-12-20T13:44:39;16.8;13;9.6
74428;PMS5003;62860;52.134;23.714;2022-12-20T13:50:21;16.6;11.6;8.6
74428;PMS5003;62860;52.134;23.714;2022-12-20T13:54:57;16;12.6;9
74428;PMS5003;62860;52.134;23.714;2022-12-20T13:59:36;15.8;13;10.2
74428;PMS5003;62860;52.134;23.714;2022-12-20T14:04:55;16.2;12.4;10
74428;PMS5003;62860;52.134;23.714;2022-12-20T14:09:45;15.8;11.6;8.4
74428;PMS5003;62860;52.134;23.714;2022-12-20T14:15:17;17;13;9.8
74428;PMS5003;62860;52.134;23.714;2022-12-20T14:20:04;15.6;12.4;9.2
74428;PMS5003;62860;52.134;23.714;2022-12-20T14:24:54;16.6;13;9.8
74428;PMS5003;62860;52.134;23.714;2022-12-20T14:29:46;14.8;12;8.6
74428;PMS5003;62860;52.134;23.714;2022-12-20T14:34:36;18.2;13.6;11
74428;PMS5003;62860;52.134;23.714;2022-12-20T14:40:14;18.6;13.8;10
74428;PMS5003;62860;52.134;23.714;2022-12-20T14:45:15;17.8;13.8;10.2
74428;PMS5003;62860;52.134;23.714;2022-12-20T14:49:26;16;13.4;9.8
74428;PMS5003;62860;52.134;23.714;2022-12-20T14:54:26;19.4;16.8;13.4
74428;PMS5003;62860;52.134;23.714;2022-12-20T14:59:27;20.4;15.6;12
74428;PMS5003;62860;52.134;23.714;2022-12-20T15:05:08;18;14;9.6
74428;PMS5003;62860;52.134;23.714;2022-12-20T15:10:06;17.2;13.2;9.6
74428;PMS5003;62860;52.134;23.714;2022-12-20T15:14:56;17.2;13;9.8
74428;PMS5003;62860;52.134;23.714;2022-12-20T15:19:57;19.2;13.8;8.8
74428;PMS5003;62860;52.134;23.714;2022-12-20T15:24:36;18.6;14.2;10.2
74428;PMS5003;62860;52.134;23.714;2022-12-20T15:30:10;15.4;12.2;8.6
74428;PMS5003;62860;52.134;23.714;2022-12-20T15:35:10;19.4;13.8;10.4
74428;PMS5003;62860;52.134;23.714;2022-12-20T15:39:26;17.6;14;10.6
74428;PMS5003;62860;52.134;23.714;2022-12-20T15:45:04;17.2;13.6;10.4
74428;PMS5003;62860;52.134;23.714;2022-12-20T15:49:58;19.2;15.8;11.6
74428;PMS5003;62860;52.134;23.714;2022-12-20T15:55:04;18.6;13;10.6
74428;PMS5003;62860;52.134;23.714;2022-12-20T16:00:05;14.8;13.8;9.6
74428;PMS5003;62860;52.134;23.714;2022-12-20T16:04:46;16.2;13.2;8.8
74428;PMS5003;62860;52.134;23.714;2022-12-20T16:09:56;17.4;13.6;9.8
74428;PMS5003;62860;52.134;23.714;2022-12-20T16:14:26;17.6;13.6;11
74428;PMS5003;62860;52.134;23.714;2022-12-20T16:20:08;20.8;17.2;12
74428;PMS5003;62860;52.134;23.714;2022-12-20T16:25:04;17.6;14;11
74428;PMS5003;62860;52.134;23.714;2022-12-20T16:29:38;17.8;15.3;11
74428;PMS5003;62860;52.134;23.714;2022-12-20T16:34:48;17;13.6;11
74428;PMS5003;62860;52.134;23.714;2022-12-20T16:39:48;20.4;16.4;11.2
74428;PMS5003;62860;52.134;23.714;2022-12-20T16:45:08;19.8;16.2;11.2
74428;PMS5003;62860;52.134;23.714;2022-12-20T16:50:08;18.8;15.6;10.8
74428;PMS5003;62860;52.134;23.714;2022-12-20T16:54:56;19.2;15.4;10.8
74428;PMS5003;62860;52.134;23.714;2022-12-20T16:59:58;17.6;15;9.8
74428;PMS5003;62860;52.134;23.714;2022-12-20T17:04:26;16.6;13.8;9.8
74428;PMS5003;62860;52.134;23.714;2022-12-20T17:10:04;20;14.4;10.8
74428;PMS5003;62860;52.134;23.714;2022-12-20T17:15:08;17.6;14.6;10.8
74428;PMS5003;62860;52.134;23.714;2022-12-20T17:19:26;20;16.6;12.2
74428;PMS5003;62860;52.134;23.714;2022-12-20T17:24:44;21;16.8;12
74428;PMS5003;62860;52.134;23.714;2022-12-20T17:30:07;22.8;18.8;14
74428;PMS5003;62860;52.134;23.714;2022-12-20T17:35:10;23.6;16.2;11.8
74428;PMS5003;62860;52.134;23.714;2022-12-20T17:39:36;22.8;17.6;11.8
74428;PMS5003;62860;52.134;23.714;2022-12-20T17:44:56;25.6;19;12.8
74428;PMS5003;62860;52.134;23.714;2022-12-20T17:49:36;21.6;17.2;13
74428;PMS5003;62860;52.134;23.714;2022-12-20T17:54:36;21.6;17.4;12.6
74428;PMS5003;62860;52.134;23.714;2022-12-20T17:59:54;18.4;15.2;10.8
74428;PMS5003;62860;52.134;23.714;2022-12-20T18:04:44;24.2;17.8;13.8
74428;PMS5003;62860;52.134;23.714;2022-12-20T18:09:24;21;15.6;11.2
74428;PMS5003;62860;52.134;23.714;2022-12-20T18:14:24;21;18.4;12
74428;PMS5003;62860;52.134;23.714;2022-12-20T18:20:05;20.8;15.6;11.8
74428;PMS5003;62860;52.134;23.714;2022-12-20T18:25:04;24;19.6;15
74428;PMS5003;62860;52.134;23.714;2022-12-20T18:29:34;21;17;13
74428;PMS5003;62860;52.134;23.714;2022-12-20T18:34:52;25;20;12.6
74428;PMS5003;62860;52.134;23.714;2022-12-20T18:39:24;18.8;16.4;12.6
74428;PMS5003;62860;52.134;23.714;2022-12-20T18:44:34;22;17.6;12.8
74428;PMS5003;62860;52.134;23.714;2022-12-20T18:49:34;20.6;16.8;12
74428;PMS5003;62860;52.134;23.714;2022-12-20T18:54:42;20;16.6;12.6
74428;PMS5003;62860;52.134;23.714;2022-12-20T18:59:32;22.4;18;12.2
74428;PMS5003;62860;52.134;23.714;2022-12-20T19:04:44;20.4;17.2;10.8
74428;PMS5003;62860;52.134;23.714;2022-12-20T19:10:05;21.8;18.4;13
74428;PMS5003;62860;52.134;23.714;2022-12-20T19:15:05;23;17.6;12.6
74428;PMS5003;62860;52.134;23.714;2022-12-20T19:19:24;24;18.8;12
74428;PMS5003;62860;52.134;23.714;2022-12-20T19:24:52;22;18.2;13.8
74428;PMS5003;62860;52.134;23.714;2022-12-20T19:29:44;20;16.6;10.8
74428;PMS5003;62860;52.134;23.714;2022-12-20T19:34:24;18.6;15.8;12.4
74428;PMS5003;62860;52.134;23.714;2022-12-20T19:39:52;20.4;18;13
74428;PMS5003;62860;52.134;23.714;2022-12-20T19:44:54;23.8;15.2;11.6
74428;PMS5003;62860;52.134;23.714;2022-12-20T19:49:32;19;16.2;11.8
74428;PMS5003;62860;52.134;23.714;2022-12-20T19:54:24;17.2;15.6;11.8
74428;PMS5003;62860;52.134;23.714;2022-12-20T20:00:03;19.8;16.6;11.8
74428;PMS5003;62860;52.134;23.714;2022-12-20T20:04:56;20.4;18;13.2
74428;PMS5003;62860;52.134;23.714;2022-12-20T20:09:24;21.2;17.2;13
74428;PMS5003;62860;52.134;23.714;2022-12-20T20:14:52;22.8;17.8;12
74428;PMS5003;62860;52.134;23.714;2022-12-20T20:19:44;22;16.2;12.8
74428;PMS5003;62860;52.134;23.714;2022-12-20T20:24:36;20;15.8;11.6
74428;PMS5003;62860;52.134;23.714;2022-12-20T20:29:42;21.6;17;12.4
74428;PMS5003;62860;52.134;23.714;2022-12-20T20:34:56;18.8;15.2;10.8
74428;PMS5003;62860;52.134;23.714;2022-12-20T20:39:24;23.2;17.4;12.2
74428;PMS5003;62860;52.134;23.714;2022-12-20T20:44:24;24;18.4;13
74428;PMS5003;62860;52.134;23.714;2022-12-20T20:50:05;18.6;15.6;10.8
74428;PMS5003;62860;52.134;23.714;2022-12-20T20:54:56;20.8;17.2;12.8
74428;PMS5003;62860;52.134;23.714;2022-12-20T20:59:38;19.8;14.6;11.2
74428;PMS5003;62860;52.134;23.714;2022-12-20T21:04:56;19.6;16.8;11.8
74428;PMS5003;62860;52.134;23.714;2022-12-20T21:09:24;19.6;15.2;10.8
74428;PMS5003;62860;52.134;23.714;2022-12-20T21:14:36;19.2;14.8;10
74428;PMS5003;62860;52.134;23.714;2022-12-20T21:19:56;20.8;16.8;11.4
74428;PMS5003;62860;52.134;23.714;2022-12-20T21:25:05;18.8;14.6;9.8
74428;PMS5003;62860;52.134;23.714;2022-12-20T21:29:36;19.8;14.4;11
74428;PMS5003;62860;52.134;23.714;2022-12-20T21:34:34;21.4;16.6;10.8
74428;PMS5003;62860;52.134;23.714;2022-12-20T21:39:56;18.4;15.8;10.6
74428;PMS5003;62860;52.134;23.714;2022-12-20T21:44:54;22;17.5;13.3
74428;PMS5003;62860;52.134;23.714;2022-12-20T21:49:32;25.2;18;13
74428;PMS5003;62860;52.134;23.714;2022-12-20T21:54:40;20.6;16.6;11.6
74428;PMS5003;62860;52.134;23.714;2022-12-20T21:59:34;20;14.8;11.2
74428;PMS5003;62860;52.134;23.714;2022-12-20T22:04:48;18;16.6;12
74428;PMS5003;62860;52.134;23.714;2022-12-20T22:10:00;19.4;15.8;11.4
74428;PMS5003;62860;52.134;23.714;2022-12-20T22:15:02;20.8;18.4;11.6
74428;PMS5003;62860;52.134;23.714;2022-12-20T22:19:48;20;15.6;10.8
74428;PMS5003;62860;52.134;23.714;2022-12-20T22:24:40;19.4;16.2;11
74428;PMS5003;62860;52.134;23.714;2022-12-20T22:29:54;20.4;14.6;11.2
74428;PMS5003;62860;52.134;23.714;2022-12-20T22:34:44;21.2;17.4;12.8
74428;PMS5003;62860;52.134;23.714;2022-12-20T22:39:24;20.6;18.4;12.8
74428;PMS5003;62860;52.134;23.714;2022-12-20T22:44:38;20.4;15.8;11.8
74428;PMS5003;62860;52.134;23.714;2022-12-20T22:49:42;19.2;15.6;12.2
74428;PMS5003;62860;52.134;23.714;2022-12-20T22:54:32;21;17.4;13.6
74428;PMS5003;62860;52.134;23.714;2022-12-20T23:00:00;22.4;18.8;12.8
74428;PMS5003;62860;52.134;23.714;2022-12-20T23:05:04;19.8;14.4;11.2
74428;PMS5003;62860;52.134;23.714;2022-12-20T23:09:34;18.6;16.2;11
74428;PMS5003;62860;52.134;23.714;2022-12-20T23:14:40;18;14.4;10.4
74428;PMS5003;62860;52.134;23.714;2022-12-20T23:19:56;20.4;15.8;11.6
74428;PMS5003;62860;52.134;23.714;2022-12-20T23:24:52;17;11.2;8.6
74428;PMS5003;62860;52.134;23.714;2022-12-20T23:29:24;14.8;14;10.4
74428;PMS5003;62860;52.134;23.714;2022-12-20T23:34:32;18.4;15;11.6
74428;PMS5003;62860;52.134;23.714;2022-12-20T23:39:34;14.4;11;8.2
74428;PMS5003;62860;52.134;23.714;2022-12-20T23:44:30;15.2;10.2;7
74428;PMS5003;62860;52.134;23.714;2022-12-20T23:50:03;13.2;9.2;7.6
74428;PMS5003;62860;52.134;23.714;2022-12-20T23:55:02;16.6;13.8;10.6
74428;PMS5003;62860;52.134;23.714;2022-12-20T23:59:42;13.4;10.4;8.2
